KCNU/CNU METAR and TAF weather

Enter ICAO airport designator
Station Type Date Time Source
KCNU METAR 2022/01/26 13:52 UTC NOAA

KCNU 261352Z AUTO 10004KT 10SM BKN100 M09/M16 A3049 RMK AO2 SLP340 T10891156 TSNO


Station Type Date Time Source
KCNU Decoded METAR 2022/01/26 13:52 UTC NOAA

CHANUTE JOHNSON AIRPORT, KS, United States (KCNU) 37-40N 95-29W 297M
Jan 26, 2022 - 08:52 AM EST / 2022.01.26 1352 UTC
Wind: from the E (100 degrees) at 5 MPH (4 KT):0
Visibility: 10 mile(s):0
Sky conditions: mostly cloudy
Temperature: 16.0 F (-8.9 C)
Windchill: 8 F (-13 C):1
Dew Point: 3.9 F (-15.6 C)
Relative Humidity: 58%
Pressure (altimeter): 30.49 in. Hg (1032 hPa)
ob: KCNU 261352Z AUTO 10004KT 10SM BKN100 M09/M16 A3049 RMK AO2 SLP340 T10891156 TSNO
cycle: 14

Station Type Date Time Source
KCNU TAF 2022/01/26 12:36 UTC NOAA

TAF KCNU 261134Z 2612/2712 10005KT P6SM SCT100
FM261700 16007KT P6SM BKN100
FM262000 19008KT P6SM BKN080
FM270200 19011KT P6SM BKN050
FM270600 20010KT P6SM OVC020

Example: see airport list